Time;durP1;ratioP1;P1;durP2;ratioP2;P2;SDS_P1;SDS_P2;PMS_P1;PMS_P2;Temp;Humidity;BMP_temperature;BMP_pressure;BME280_temperature;BME280_humidity;BME280_pressure;Samples;Min_cycle;Max_cycle;Signal;HPM_P1;HPM_P2
2023/04/27 00:00:54;;;;;;;10.10;4.20;;;6.30;98.80;;;;;;5083123;28;20474;-71
2023/04/27 00:03:41;;;;;;;4.33;3.60;;;6.30;98.90;;;;;;5083948;28;21079;-72
2023/04/27 00:06:26;;;;;;;5.80;3.47;;;6.30;99.50;;;;;;5091691;28;20961;-72
2023/04/27 00:09:11;;;;;;;5.07;3.77;;;6.30;98.70;;;;;;5086072;28;21037;-72
2023/04/27 00:11:57;;;;;;;4.77;3.67;;;6.20;99.00;;;;;;5086515;28;20474;-71
2023/04/27 00:14:44;;;;;;;6.17;4.27;;;6.00;99.40;;;;;;5086119;28;20475;-72
2023/04/27 00:17:29;;;;;;;4.97;3.60;;;5.90;99.90;;;;;;5087555;28;20448;-71
2023/04/27 00:20:14;;;;;;;6.80;3.67;;;5.90;99.90;;;;;;5086282;28;20460;-71
2023/04/27 00:23:00;;;;;;;6.33;3.30;;;6.00;99.90;;;;;;5079191;28;20932;-71
2023/04/27 00:25:45;;;;;;;4.77;3.57;;;6.00;99.90;;;;;;5084435;28;20407;-71
2023/04/27 00:28:31;;;;;;;4.83;3.30;;;6.00;99.90;;;;;;5083396;28;20441;-72
2023/04/27 00:31:18;;;;;;;7.90;3.60;;;5.90;99.90;;;;;;5083584;28;20572;-71
2023/04/27 00:34:03;;;;;;;7.50;3.20;;;5.80;99.90;;;;;;5084867;28;20547;-72
2023/04/27 00:36:49;;;;;;;7.30;3.30;;;5.80;99.90;;;;;;5084505;28;21048;-71
2023/04/27 00:39:35;;;;;;;5.07;3.70;;;5.80;99.90;;;;;;5086710;28;20613;-71
2023/04/27 00:42:20;;;;;;;5.00;3.37;;;5.80;99.90;;;;;;5080974;28;20479;-72
2023/04/27 00:45:07;;;;;;;7.97;3.70;;;5.70;99.90;;;;;;5080900;28;20421;-72
2023/04/27 00:47:54;;;;;;;5.77;2.97;;;5.70;99.90;;;;;;5079422;28;20501;-71
2023/04/27 00:50:39;;;;;;;6.40;3.70;;;5.80;99.90;;;;;;5087439;28;20455;-71
2023/04/27 00:53:25;;;;;;;9.50;3.43;;;5.80;99.90;;;;;;5085965;28;20415;-71
2023/04/27 00:56:12;;;;;;;8.10;3.87;;;5.90;99.90;;;;;;5081221;28;20776;-71
2023/04/27 00:58:58;;;;;;;4.10;3.27;;;5.80;99.90;;;;;;5087204;28;20818;-72
2023/04/27 01:01:43;;;;;;;7.80;3.03;;;5.70;99.90;;;;;;5080934;28;20420;-72
2023/04/27 01:04:31;;;;;;;7.90;3.43;;;5.70;99.90;;;;;;5083702;28;20413;-71
2023/04/27 01:07:17;;;;;;;7.73;3.20;;;5.70;99.90;;;;;;5082887;28;20419;-72
2023/04/27 01:10:02;;;;;;;6.03;3.90;;;5.70;99.90;;;;;;5088452;28;20463;-72
2023/04/27 01:12:47;;;;;;;4.80;3.30;;;5.70;99.90;;;;;;5083156;28;20451;-72
2023/04/27 01:15:33;;;;;;;4.60;3.30;;;5.70;99.90;;;;;;5084459;28;20468;-71
2023/04/27 01:18:19;;;;;;;9.00;3.37;;;5.70;99.90;;;;;;5084644;28;20518;-71
2023/04/27 01:21:06;;;;;;;5.70;3.90;;;5.60;99.90;;;;;;5083963;28;20578;-72
2023/04/27 01:23:52;;;;;;;7.30;3.87;;;5.60;99.90;;;;;;5087372;28;20476;-72
2023/04/27 01:26:38;;;;;;;8.03;3.30;;;5.70;99.90;;;;;;5088646;28;20515;-72
2023/04/27 01:29:23;;;;;;;12.97;3.70;;;5.70;99.90;;;;;;5082827;28;20466;-72
2023/04/27 01:32:09;;;;;;;6.30;3.67;;;5.70;99.90;;;;;;5077893;28;20492;-72
2023/04/27 01:34:54;;;;;;;5.27;3.13;;;5.70;99.90;;;;;;5081137;28;20524;-71
2023/04/27 01:37:40;;;;;;;6.80;4.07;;;5.60;99.90;;;;;;5086284;28;20439;-72
2023/04/27 01:40:27;;;;;;;5.73;3.70;;;5.60;99.90;;;;;;5080598;28;20443;-71
2023/04/27 01:43:12;;;;;;;4.03;3.17;;;5.60;99.90;;;;;;5083994;28;20454;-71
2023/04/27 01:46:05;;;;;;;5.53;3.60;;;5.50;99.90;;;;;;5082488;28;21065;-71
2023/04/27 01:48:51;;;;;;;6.03;3.23;;;5.50;99.90;;;;;;5084900;28;20462;-72
2023/04/27 01:51:36;;;;;;;5.17;3.47;;;5.40;99.90;;;;;;5082841;28;20422;-72
2023/04/27 01:54:22;;;;;;;4.67;3.27;;;5.40;99.90;;;;;;5083565;28;20944;-71
2023/04/27 01:57:08;;;;;;;7.70;4.30;;;5.50;99.90;;;;;;5078712;28;20504;-71
2023/04/27 01:59:54;;;;;;;3.90;3.10;;;5.40;99.90;;;;;;5080370;28;20581;-71
2023/04/27 02:02:39;;;;;;;13.60;3.70;;;5.30;99.90;;;;;;5083302;28;20448;-71
2023/04/27 02:05:25;;;;;;;5.07;3.57;;;5.20;99.90;;;;;;5083658;28;20496;-72
2023/04/27 02:08:10;;;;;;;6.40;3.80;;;5.20;99.90;;;;;;5086056;28;20465;-72
2023/04/27 02:10:56;;;;;;;8.70;3.63;;;5.20;99.90;;;;;;5080476;28;20468;-71
2023/04/27 02:13:43;;;;;;;4.77;3.33;;;5.20;99.90;;;;;;5081486;28;20509;-71
2023/04/27 02:16:29;;;;;;;5.57;3.73;;;5.10;99.90;;;;;;5078970;28;20492;-71
2023/04/27 02:19:14;;;;;;;8.80;3.90;;;5.20;99.90;;;;;;5080727;28;20960;-72
2023/04/27 02:22:00;;;;;;;4.53;3.30;;;5.30;99.90;;;;;;5083775;28;20605;-72
2023/04/27 02:24:45;;;;;;;9.23;3.80;;;5.30;99.90;;;;;;5081727;28;20423;-72
2023/04/27 02:27:31;;;;;;;4.77;3.00;;;5.20;99.90;;;;;;5076528;28;21009;-72
2023/04/27 02:30:17;;;;;;;4.57;3.17;;;5.10;99.90;;;;;;5076241;28;20453;-71
2023/04/27 02:33:03;;;;;;;3.80;3.47;;;5.10;99.90;;;;;;5086397;28;20447;-71
2023/04/27 02:35:49;;;;;;;7.30;3.90;;;5.20;99.90;;;;;;5085019;28;20440;-72
2023/04/27 02:38:35;;;;;;;7.20;3.63;;;5.20;99.90;;;;;;5086145;28;20455;-72
2023/04/27 02:41:19;;;;;;;5.40;3.40;;;5.10;99.90;;;;;;5083922;28;20847;-72
2023/04/27 02:44:05;;;;;;;5.10;3.20;;;5.20;99.90;;;;;;5086917;28;20445;-71
2023/04/27 02:46:52;;;;;;;8.80;3.53;;;5.20;99.90;;;;;;5085541;28;20453;-71
2023/04/27 02:49:37;;;;;;;8.20;3.57;;;5.20;99.90;;;;;;5077758;28;20468;-71
2023/04/27 02:52:23;;;;;;;4.90;3.33;;;5.20;99.90;;;;;;5085560;28;20443;-72
2023/04/27 02:55:09;;;;;;;8.80;3.33;;;5.20;99.90;;;;;;5087957;28;20496;-71
2023/04/27 02:57:54;;;;;;;4.20;3.10;;;5.20;99.90;;;;;;5085534;28;20446;-72
2023/04/27 03:00:40;;;;;;;5.67;3.50;;;5.20;99.90;;;;;;5082921;28;20429;-71
2023/04/27 03:03:27;;;;;;;5.13;3.63;;;5.10;99.90;;;;;;5087305;28;20577;-72
2023/04/27 03:06:12;;;;;;;5.90;3.40;;;5.10;99.90;;;;;;5083832;28;20443;-72
2023/04/27 03:08:58;;;;;;;11.43;4.07;;;5.10;99.90;;;;;;5087457;28;20466;-72
2023/04/27 03:11:44;;;;;;;6.60;3.93;;;5.10;99.90;;;;;;5086665;28;20434;-71
2023/04/27 03:14:29;;;;;;;5.87;3.23;;;5.10;99.90;;;;;;5086158;28;20457;-72
2023/04/27 03:17:15;;;;;;;7.43;3.97;;;5.20;99.90;;;;;;5086050;28;20458;-71
2023/04/27 03:20:03;;;;;;;6.93;3.57;;;5.20;99.90;;;;;;5085246;28;20583;-71
2023/04/27 03:22:49;;;;;;;6.80;4.00;;;5.30;99.90;;;;;;5086899;28;20497;-72
2023/04/27 03:25:34;;;;;;;6.47;3.20;;;5.40;99.90;;;;;;5087272;28;20565;-72
2023/04/27 03:28:20;;;;;;;8.40;4.13;;;5.50;99.90;;;;;;5082700;28;20464;-72
2023/04/27 03:31:06;;;;;;;7.13;3.80;;;5.60;99.90;;;;;;5087502;28;20505;-71
2023/04/27 03:33:51;;;;;;;9.57;3.70;;;5.60;99.90;;;;;;5088969;28;20442;-72
2023/04/27 03:36:38;;;;;;;5.43;3.43;;;5.70;99.90;;;;;;5086133;28;20476;-72
2023/04/27 03:39:24;;;;;;;8.27;3.37;;;5.60;99.90;;;;;;5082217;28;21080;-72
2023/04/27 03:42:09;;;;;;;4.67;3.30;;;5.70;99.90;;;;;;5089567;28;20424;-72
2023/04/27 03:44:54;;;;;;;9.60;3.40;;;5.70;99.90;;;;;;5088124;28;20429;-72
2023/04/27 03:47:40;;;;;;;5.30;3.50;;;5.70;99.90;;;;;;5082803;28;20429;-72
2023/04/27 03:50:25;;;;;;;5.30;3.53;;;5.70;99.90;;;;;;5085128;28;20455;-72
2023/04/27 03:53:13;;;;;;;4.27;3.13;;;5.80;99.90;;;;;;5075545;28;20422;-71
2023/04/27 03:55:58;;;;;;;5.23;3.33;;;5.90;99.90;;;;;;5089605;28;21104;-72
2023/04/27 03:58:45;;;;;;;7.00;3.20;;;5.90;99.90;;;;;;5083870;28;20440;-72
2023/04/27 04:01:32;;;;;;;6.20;3.33;;;6.00;99.90;;;;;;5087359;28;20444;-72
2023/04/27 04:04:17;;;;;;;6.93;3.57;;;6.00;99.90;;;;;;5086876;28;20521;-71
2023/04/27 04:07:03;;;;;;;11.90;3.70;;;6.00;99.90;;;;;;5083730;28;20449;-72
2023/04/27 04:09:49;;;;;;;5.43;3.37;;;6.00;99.90;;;;;;5081012;28;20460;-72
2023/04/27 04:12:35;;;;;;;4.67;2.90;;;6.00;99.90;;;;;;5083594;28;20508;-72
2023/04/27 04:15:20;;;;;;;3.93;3.20;;;6.00;99.90;;;;;;5084249;28;20532;-71
2023/04/27 04:18:06;;;;;;;7.07;4.00;;;6.00;99.90;;;;;;5083174;28;20599;-72
2023/04/27 04:20:51;;;;;;;11.30;3.87;;;6.10;99.90;;;;;;5086383;28;20576;-72
2023/04/27 04:23:37;;;;;;;6.50;3.63;;;6.10;99.90;;;;;;5087948;28;20417;-71
2023/04/27 04:26:23;;;;;;;6.83;3.27;;;6.20;99.90;;;;;;5085221;28;20454;-71
2023/04/27 04:29:09;;;;;;;9.93;3.80;;;6.30;99.90;;;;;;5081807;28;20469;-72
2023/04/27 04:31:55;;;;;;;10.27;3.80;;;6.30;99.90;;;;;;5086395;28;20660;-72
2023/04/27 04:34:41;;;;;;;4.20;3.13;;;6.30;99.90;;;;;;5087112;28;20565;-72
2023/04/27 04:37:26;;;;;;;8.00;3.57;;;6.40;99.90;;;;;;5084643;28;20555;-71
2023/04/27 04:40:13;;;;;;;6.70;3.40;;;6.40;99.90;;;;;;5084926;28;20425;-72
2023/04/27 04:42:59;;;;;;;11.03;4.10;;;6.40;99.90;;;;;;5086160;28;20523;-72
2023/04/27 04:45:45;;;;;;;5.00;3.77;;;6.40;99.90;;;;;;5083306;28;20961;-72
2023/04/27 04:48:31;;;;;;;7.60;3.80;;;6.50;99.90;;;;;;5081884;28;20475;-72
2023/04/27 04:51:16;;;;;;;8.33;3.60;;;6.50;99.90;;;;;;5084320;28;20458;-72
2023/04/27 04:54:05;;;;;;;11.57;4.17;;;6.50;99.90;;;;;;5084670;28;20448;-72
2023/04/27 04:56:50;;;;;;;11.80;3.33;;;6.60;99.90;;;;;;5086335;28;20574;-72
2023/04/27 04:59:37;;;;;;;7.00;3.50;;;6.50;99.90;;;;;;5085337;28;20539;-72
2023/04/27 05:02:22;;;;;;;4.83;3.10;;;6.50;99.90;;;;;;5085717;28;21047;-72
2023/04/27 05:05:09;;;;;;;4.97;3.93;;;6.50;99.90;;;;;;5085378;28;20439;-72
2023/04/27 05:07:54;;;;;;;4.47;3.30;;;6.60;99.90;;;;;;5079274;28;20460;-72
2023/04/27 05:10:39;;;;;;;6.17;3.87;;;6.70;99.90;;;;;;5083946;28;20444;-72
2023/04/27 05:13:25;;;;;;;7.67;4.13;;;6.70;99.90;;;;;;5077832;22;21067;-73
2023/04/27 05:16:12;;;;;;;6.00;3.90;;;6.70;99.90;;;;;;5044646;28;20859;-73
2023/04/27 05:18:57;;;;;;;5.93;4.50;;;6.80;99.90;;;;;;5041466;28;20524;-73
2023/04/27 05:21:43;;;;;;;6.57;3.80;;;6.70;99.90;;;;;;5038966;28;20816;-73
2023/04/27 05:24:29;;;;;;;6.70;3.97;;;6.60;99.90;;;;;;5018043;28;20478;-72
2023/04/27 05:27:14;;;;;;;8.40;3.93;;;6.60;99.90;;;;;;5023860;28;20442;-73
2023/04/27 05:30:00;;;;;;;13.10;4.37;;;6.80;99.90;;;;;;5021516;28;20452;-73
2023/04/27 05:32:47;;;;;;;5.37;4.00;;;6.90;99.90;;;;;;5025056;28;21585;-73
2023/04/27 05:35:33;;;;;;;6.30;4.30;;;7.00;99.90;;;;;;5024755;28;20606;-73
2023/04/27 05:38:18;;;;;;;12.03;4.17;;;7.10;99.90;;;;;;5016228;28;20432;-74
2023/04/27 05:41:04;;;;;;;20.70;11.07;;;7.10;99.90;;;;;;5023616;28;20422;-74
2023/04/27 05:43:50;;;;;;;31.47;18.53;;;7.20;99.90;;;;;;5021459;28;20457;-74
2023/04/27 05:46:35;;;;;;;42.30;22.77;;;7.20;99.90;;;;;;5019237;28;20415;-73
2023/04/27 05:49:22;;;;;;;30.50;15.33;;;7.30;99.90;;;;;;5019512;28;20451;-73
2023/04/27 05:52:08;;;;;;;31.67;16.20;;;7.30;99.90;;;;;;5016443;28;20471;-73
2023/04/27 05:54:53;;;;;;;29.00;15.50;;;7.40;99.90;;;;;;5019943;28;20473;-73
2023/04/27 05:57:40;;;;;;;23.00;7.97;;;7.50;99.90;;;;;;5019309;28;20448;-74
2023/04/27 06:00:25;;;;;;;13.57;6.30;;;7.60;99.90;;;;;;5022896;28;20426;-73
2023/04/27 06:03:10;;;;;;;8.00;4.53;;;7.70;99.90;;;;;;5024365;28;20469;-74
2023/04/27 06:05:59;;;;;;;6.87;4.60;;;7.70;99.90;;;;;;5017914;28;20441;-73
2023/04/27 06:08:44;;;;;;;8.43;4.87;;;7.80;99.90;;;;;;5022704;28;20450;-73
2023/04/27 06:11:30;;;;;;;7.67;3.87;;;7.80;99.90;;;;;;5023119;28;20889;-73
2023/04/27 06:14:16;;;;;;;9.83;4.53;;;7.90;99.90;;;;;;5021787;28;20440;-73
2023/04/27 06:17:02;;;;;;;10.67;4.47;;;8.00;99.90;;;;;;5023535;28;20452;-74
2023/04/27 06:19:47;;;;;;;7.60;4.50;;;8.10;99.90;;;;;;5022570;28;20446;-74
2023/04/27 06:22:35;;;;;;;9.47;4.30;;;8.20;99.90;;;;;;5020705;28;21164;-73
2023/04/27 06:25:21;;;;;;;7.70;4.30;;;8.30;99.60;;;;;;5020041;28;20421;-74
2023/04/27 06:28:06;;;;;;;5.83;3.80;;;8.40;98.60;;;;;;5020012;28;20946;-73
2023/04/27 06:30:53;;;;;;;15.23;4.27;;;8.50;96.60;;;;;;5025376;28;20485;-74
2023/04/27 06:33:38;;;;;;;8.90;4.77;;;8.60;96.30;;;;;;5026657;28;21063;-74
2023/04/27 06:36:25;;;;;;;11.50;5.83;;;8.70;95.90;;;;;;5015168;28;20487;-74
2023/04/27 06:39:12;;;;;;;22.17;8.10;;;8.80;95.90;;;;;;5019830;28;20493;-73
2023/04/27 06:41:58;;;;;;;21.80;7.60;;;8.90;95.30;;;;;;5014883;28;20451;-74
2023/04/27 06:44:43;;;;;;;37.93;14.73;;;9.00;94.50;;;;;;5027249;28;20417;-73
2023/04/27 06:47:28;;;;;;;18.63;8.43;;;9.10;95.10;;;;;;5020357;28;20491;-74
2023/04/27 06:50:15;;;;;;;21.37;7.37;;;9.20;93.70;;;;;;5020607;28;20435;-74
2023/04/27 06:53:00;;;;;;;13.20;6.43;;;9.40;93.60;;;;;;5027999;28;21076;-74
2023/04/27 06:55:48;;;;;;;9.90;4.93;;;9.50;93.40;;;;;;5015844;28;20812;-74
2023/04/27 06:58:33;;;;;;;7.90;5.00;;;9.60;93.40;;;;;;5020042;28;20774;-74
2023/04/27 07:01:18;;;;;;;7.30;4.70;;;9.80;93.50;;;;;;5022176;28;20426;-74
2023/04/27 07:04:05;;;;;;;11.27;5.17;;;9.90;93.30;;;;;;5023836;28;20455;-74
2023/04/27 07:06:50;;;;;;;13.30;4.50;;;10.00;93.10;;;;;;5026222;28;20409;-73
2023/04/27 07:09:36;;;;;;;6.00;4.00;;;10.00;93.00;;;;;;5022095;28;20419;-73
2023/04/27 07:12:23;;;;;;;8.10;3.77;;;10.10;93.90;;;;;;5020042;28;20500;-74
2023/04/27 07:15:09;;;;;;;11.70;4.03;;;10.30;93.40;;;;;;5022716;28;20523;-74
2023/04/27 07:17:54;;;;;;;6.37;3.40;;;10.40;90.40;;;;;;5018461;28;20622;-73
2023/04/27 07:20:42;;;;;;;7.10;3.83;;;10.50;90.20;;;;;;5019648;28;20806;-72
2023/04/27 07:23:27;;;;;;;4.77;3.43;;;10.60;85.70;;;;;;5017914;28;20449;-73
2023/04/27 07:26:12;;;;;;;9.63;4.07;;;10.80;82.90;;;;;;5015256;28;20436;-72
2023/04/27 07:28:59;;;;;;;7.57;3.70;;;10.90;77.30;;;;;;5024963;28;20564;-74
2023/04/27 07:31:45;;;;;;;15.03;4.47;;;11.00;70.40;;;;;;5020197;28;20509;-74
2023/04/27 07:34:31;;;;;;;5.73;3.50;;;11.00;67.20;;;;;;5021401;28;20447;-74
2023/04/27 07:37:17;;;;;;;5.20;3.00;;;11.10;66.80;;;;;;5017491;28;20935;-72
2023/04/27 07:40:09;;;;;;;5.10;3.33;;;11.30;64.90;;;;;;5024078;28;20454;-74
2023/04/27 07:42:57;;;;;;;4.47;3.00;;;11.20;61.70;;;;;;5021014;28;20451;-73
2023/04/27 07:45:44;;;;;;;5.00;3.20;;;11.30;60.30;;;;;;5023797;28;20466;-72
2023/04/27 07:48:29;;;;;;;7.17;3.33;;;11.50;57.50;;;;;;5024662;28;20963;-74
2023/04/27 07:51:16;;;;;;;9.03;3.20;;;11.50;55.10;;;;;;5026913;28;20951;-74
2023/04/27 07:54:02;;;;;;;12.10;3.60;;;11.60;55.00;;;;;;5030274;28;20466;-74
2023/04/27 07:56:47;;;;;;;11.27;2.80;;;11.70;54.10;;;;;;5027377;28;20521;-73
2023/04/27 07:59:33;;;;;;;6.47;3.03;;;11.80;53.70;;;;;;5031615;28;20524;-74
2023/04/27 08:02:20;;;;;;;9.93;4.43;;;11.90;53.30;;;;;;5021530;28;20442;-73
2023/04/27 08:05:06;;;;;;;6.30;2.83;;;12.00;53.30;;;;;;5025528;28;20789;-73
2023/04/27 08:07:52;;;;;;;6.20;3.17;;;12.10;51.20;;;;;;5028273;28;20498;-74
2023/04/27 08:10:38;;;;;;;6.63;3.10;;;12.20;52.10;;;;;;5030216;28;20430;-74
2023/04/27 08:13:23;;;;;;;9.73;3.03;;;12.30;58.30;;;;;;5020613;28;20456;-73
2023/04/27 08:16:08;;;;;;;8.20;3.03;;;12.40;53.80;;;;;;5024724;28;20987;-73
2023/04/27 08:18:55;;;;;;;4.40;2.80;;;12.50;55.90;;;;;;5024493;28;20426;-74
2023/04/27 08:21:41;;;;;;;8.63;3.37;;;12.60;53.10;;;;;;5030462;28;20458;-73
2023/04/27 08:24:26;;;;;;;13.97;3.47;;;12.70;55.60;;;;;;5027992;28;20454;-74
2023/04/27 08:27:12;;;;;;;6.77;3.13;;;12.90;52.00;;;;;;5022932;28;20534;-73
2023/04/27 08:29:57;;;;;;;8.53;3.50;;;12.90;46.70;;;;;;5022041;28;20423;-74
2023/04/27 08:32:43;;;;;;;9.30;3.20;;;13.10;49.10;;;;;;5027938;28;20996;-74
2023/04/27 08:35:30;;;;;;;7.50;4.53;;;13.10;47.40;;;;;;5021495;28;20856;-74
2023/04/27 08:38:15;;;;;;;7.07;3.63;;;13.10;42.50;;;;;;5025354;28;20474;-74
2023/04/27 08:41:01;;;;;;;11.43;4.03;;;13.30;39.50;;;;;;5029232;28;20535;-73
2023/04/27 08:43:48;;;;;;;6.37;3.73;;;13.30;37.50;;;;;;5019232;28;20495;-74
2023/04/27 08:46:33;;;;;;;8.43;4.00;;;13.40;35.40;;;;;;5019680;28;20460;-74
2023/04/27 08:49:20;;;;;;;10.47;4.27;;;13.40;36.90;;;;;;5029009;28;20905;-72
2023/04/27 08:52:10;;;;;;;7.50;3.60;;;13.60;36.60;;;;;;5029306;28;20394;-74
2023/04/27 08:54:56;;;;;;;6.67;4.20;;;13.60;33.50;;;;;;5026404;28;20445;-73
2023/04/27 08:57:41;;;;;;;13.00;3.87;;;13.50;30.50;;;;;;5017986;28;20585;-73
2023/04/27 09:00:27;;;;;;;9.87;3.57;;;13.40;32.50;;;;;;5028362;28;20459;-74
2023/04/27 09:03:21;;;;;;;20.03;4.17;;;13.60;36.50;;;;;;5029864;28;20445;-74
2023/04/27 09:06:07;;;;;;;7.20;3.50;;;13.70;32.80;;;;;;5020322;28;20556;-73
2023/04/27 09:08:54;;;;;;;7.83;3.20;;;13.80;32.60;;;;;;5018742;28;20547;-73
2023/04/27 09:11:40;;;;;;;9.10;4.40;;;14.00;30.50;;;;;;5018173;28;20439;-72
2023/04/27 09:14:26;;;;;;;6.03;4.40;;;14.10;28.70;;;;;;5029648;28;20464;-73
2023/04/27 09:17:11;;;;;;;6.00;3.50;;;14.10;30.60;;;;;;5022657;28;20533;-73
2023/04/27 09:20:09;;;;;;;14.33;4.00;;;14.20;32.80;;;;;;5019058;28;20447;-73
2023/04/27 09:22:54;;;;;;;6.27;3.43;;;14.30;33.90;;;;;;5028299;28;20468;-73
2023/04/27 09:25:41;;;;;;;11.83;3.67;;;14.40;33.40;;;;;;5025432;28;20979;-73
2023/04/27 09:28:28;;;;;;;11.30;3.80;;;14.50;31.40;;;;;;5023255;28;20594;-73
2023/04/27 09:31:14;;;;;;;13.93;4.00;;;14.60;29.10;;;;;;5019191;28;20454;-73
2023/04/27 09:33:59;;;;;;;8.50;3.63;;;14.70;29.90;;;;;;5019150;28;20509;-73
2023/04/27 09:36:47;;;;;;;9.77;4.67;;;14.80;34.00;;;;;;5019918;28;20466;-73
2023/04/27 09:39:33;;;;;;;9.27;4.40;;;15.00;35.40;;;;;;5026377;28;20440;-74
2023/04/27 09:42:20;;;;;;;10.43;4.60;;;15.10;29.50;;;;;;5020277;28;20446;-74
2023/04/27 09:45:07;;;;;;;9.30;4.53;;;15.20;31.20;;;;;;5025449;28;20423;-73
2023/04/27 09:47:53;;;;;;;8.80;4.00;;;15.10;29.30;;;;;;5022761;28;20462;-73
2023/04/27 09:50:40;;;;;;;8.93;4.70;;;15.10;30.40;;;;;;5024553;28;20986;-73
2023/04/27 09:53:33;;;;;;;6.80;3.97;;;15.10;31.20;;;;;;5021727;28;20985;-73
2023/04/27 09:56:28;;;;;;;9.07;3.60;;;15.10;29.00;;;;;;5030034;28;21029;-73
2023/04/27 09:59:36;;;;;;;11.50;3.10;;;15.10;27.90;;;;;;5022234;28;20422;-74
2023/04/27 10:02:24;;;;;;;5.50;3.70;;;15.20;28.10;;;;;;5024798;28;20455;-73
2023/04/27 10:05:37;;;;;;;9.40;3.50;;;15.20;26.10;;;;;;5020296;28;20847;-73
2023/04/27 10:08:23;;;;;;;6.43;3.53;;;15.20;26.90;;;;;;5020259;28;20447;-74
2023/04/27 10:11:15;;;;;;;7.93;3.50;;;15.40;27.70;;;;;;5026763;28;20924;-74
2023/04/27 10:14:07;;;;;;;9.03;3.03;;;15.50;27.30;;;;;;5023647;28;20563;-73
2023/04/27 10:16:55;;;;;;;8.20;3.27;;;15.60;27.30;;;;;;5021457;28;20516;-74
2023/04/27 10:19:41;;;;;;;4.77;3.10;;;15.70;26.30;;;;;;5022931;28;20801;-73
2023/04/27 10:22:38;;;;;;;10.77;3.43;;;15.80;27.80;;;;;;5023956;28;20476;-73
2023/04/27 10:25:27;;;;;;;6.47;3.80;;;15.90;27.70;;;;;;5023582;28;20427;-73
2023/04/27 10:28:16;;;;;;;6.97;3.93;;;16.10;27.70;;;;;;5026126;28;20457;-73
2023/04/27 10:31:09;;;;;;;18.63;4.70;;;16.30;25.50;;;;;;5012576;28;20455;-74
2023/04/27 10:34:07;;;;;;;11.13;4.43;;;16.50;25.10;;;;;;5021194;28;20833;-75
2023/04/27 10:37:05;;;;;;;8.47;3.73;;;16.50;23.50;;;;;;5023199;28;20451;-74
2023/04/27 10:39:50;;;;;;;7.30;3.40;;;16.40;23.30;;;;;;5019939;28;20431;-77
2023/04/27 10:42:36;;;;;;;8.00;3.60;;;16.30;22.60;;;;;;5023531;28;20683;-75
2023/04/27 10:45:28;;;;;;;10.57;4.87;;;16.40;23.50;;;;;;5018894;28;20445;-75
2023/04/27 10:48:14;;;;;;;8.90;4.33;;;16.40;24.40;;;;;;5023947;28;20449;-74
2023/04/27 10:51:02;;;;;;;5.80;2.83;;;16.50;26.40;;;;;;5018362;28;21059;-73
2023/04/27 10:53:52;;;;;;;5.93;3.43;;;16.60;27.60;;;;;;5021228;28;20471;-73
2023/04/27 10:56:38;;;;;;;7.67;3.90;;;16.60;23.60;;;;;;5014329;28;20985;-74
2023/04/27 10:59:23;;;;;;;5.00;3.30;;;16.70;24.90;;;;;;5025385;28;20431;-74
2023/04/27 11:02:10;;;;;;;9.47;4.47;;;16.80;22.90;;;;;;5021923;28;20604;-73
2023/04/27 11:04:56;;;;;;;8.07;4.30;;;16.80;25.00;;;;;;5019342;28;20471;-73
2023/04/27 11:07:43;;;;;;;9.10;4.13;;;16.80;23.80;;;;;;5019969;28;20442;-74
2023/04/27 11:10:28;;;;;;;6.60;4.13;;;17.00;25.50;;;;;;5023695;28;20460;-73
2023/04/27 11:13:18;;;;;;;8.27;4.50;;;17.00;24.80;;;;;;5024751;28;21113;-74
2023/04/27 11:16:05;;;;;;;9.27;4.03;;;16.80;21.20;;;;;;5018061;28;20561;-73
2023/04/27 11:18:51;;;;;;;9.40;4.00;;;16.90;23.70;;;;;;5022211;28;20480;-73
2023/04/27 11:21:36;;;;;;;5.93;3.77;;;17.20;24.60;;;;;;5021133;28;20493;-73
2023/04/27 11:24:23;;;;;;;8.97;3.97;;;17.50;24.00;;;;;;5028391;28;20460;-73
2023/04/27 11:27:09;;;;;;;8.37;3.60;;;17.60;21.40;;;;;;5017294;28;20468;-74
2023/04/27 11:29:54;;;;;;;12.10;3.40;;;17.70;22.00;;;;;;5020014;28;20966;-74
2023/04/27 11:32:40;;;;;;;8.83;3.80;;;17.70;22.90;;;;;;5024679;28;20960;-74
2023/04/27 11:35:34;;;;;;;7.00;3.40;;;17.60;20.30;;;;;;5023895;28;20452;-74
2023/04/27 11:38:21;;;;;;;10.03;3.67;;;17.60;20.10;;;;;;5025272;28;21009;-74
2023/04/27 11:41:07;;;;;;;8.40;3.50;;;17.80;22.60;;;;;;5027356;28;20550;-74
2023/04/27 11:43:53;;;;;;;6.07;2.90;;;17.90;21.00;;;;;;5026125;28;20485;-74
2023/04/27 11:46:41;;;;;;;8.47;2.70;;;17.90;21.60;;;;;;5026952;28;20447;-74
2023/04/27 11:49:26;;;;;;;7.70;4.10;;;17.90;21.70;;;;;;5026857;28;20791;-74
2023/04/27 11:52:13;;;;;;;4.90;3.13;;;18.00;21.90;;;;;;5025152;28;20470;-74
2023/04/27 11:55:00;;;;;;;7.50;3.37;;;18.00;21.20;;;;;;5023084;28;20451;-72
2023/04/27 11:57:47;;;;;;;5.63;2.50;;;17.90;19.20;;;;;;5024467;28;20468;-73
2023/04/27 12:00:33;;;;;;;6.90;4.17;;;17.80;20.50;;;;;;5028082;28;20443;-74
2023/04/27 12:03:18;;;;;;;5.10;2.83;;;17.80;18.70;;;;;;5020735;28;20510;-74
2023/04/27 12:06:04;;;;;;;7.50;3.50;;;17.80;17.60;;;;;;5025186;28;20947;-74
2023/04/27 12:08:50;;;;;;;8.93;4.03;;;17.60;16.70;;;;;;5024579;28;20437;-73
2023/04/27 12:11:35;;;;;;;10.07;3.40;;;17.40;18.30;;;;;;5027306;28;20426;-74
2023/04/27 12:14:23;;;;;;;7.70;3.80;;;17.50;18.20;;;;;;5024264;28;21002;-74
2023/04/27 12:17:08;;;;;;;4.50;3.43;;;17.60;17.40;;;;;;5023252;28;20935;-74
2023/04/27 12:19:54;;;;;;;11.90;3.40;;;17.80;17.80;;;;;;5022597;28;20977;-73
2023/04/27 12:22:40;;;;;;;4.43;2.80;;;17.90;19.00;;;;;;5019554;28;20469;-73
2023/04/27 12:25:26;;;;;;;7.00;3.20;;;18.10;16.80;;;;;;5020396;28;20538;-73
2023/04/27 12:28:17;;;;;;;12.03;3.10;;;18.30;17.90;;;;;;5021858;28;20805;-74
2023/04/27 12:31:05;;;;;;;9.40;2.77;;;18.50;17.20;;;;;;5025657;28;20457;-74
2023/04/27 12:33:50;;;;;;;7.07;2.93;;;18.50;16.60;;;;;;5028964;28;20460;-73
2023/04/27 12:36:36;;;;;;;7.67;3.43;;;18.40;16.60;;;;;;5021946;28;20517;-73
2023/04/27 12:39:24;;;;;;;6.97;2.60;;;18.60;17.30;;;;;;5025485;28;20443;-72
2023/04/27 12:42:09;;;;;;;3.87;2.20;;;18.60;18.00;;;;;;5025462;28;20473;-73
2023/04/27 12:44:55;;;;;;;4.10;2.40;;;18.70;16.40;;;;;;5022169;28;20452;-73
2023/04/27 12:47:42;;;;;;;10.53;2.77;;;18.90;18.20;;;;;;5028228;28;20549;-72
2023/04/27 12:50:28;;;;;;;5.20;2.50;;;19.10;17.80;;;;;;5025857;28;20523;-72
2023/04/27 12:53:13;;;;;;;4.30;1.93;;;19.20;16.90;;;;;;5027470;28;20485;-71
2023/04/27 12:56:00;;;;;;;6.47;2.90;;;19.30;16.20;;;;;;5022420;28;20420;-73
2023/04/27 12:58:45;;;;;;;3.60;2.40;;;19.20;18.40;;;;;;5024987;28;20464;-72
2023/04/27 13:01:31;;;;;;;4.63;2.13;;;19.30;16.40;;;;;;5025482;28;20455;-73
2023/04/27 13:04:19;;;;;;;5.67;2.00;;;19.30;19.10;;;;;;5022605;28;20495;-70
2023/04/27 13:07:05;;;;;;;5.20;2.20;;;19.50;18.50;;;;;;5026440;28;20851;-74
2023/04/27 13:09:50;;;;;;;6.13;2.40;;;19.50;16.10;;;;;;5024833;28;20416;-74
2023/04/27 13:12:36;;;;;;;5.07;2.10;;;19.70;17.60;;;;;;5023996;28;20503;-70
2023/04/27 13:15:21;;;;;;;7.10;2.13;;;19.70;15.90;;;;;;5021729;28;20447;-74
2023/04/27 13:18:07;;;;;;;5.90;2.10;;;19.80;16.00;;;;;;5025597;28;20493;-74
2023/04/27 13:20:53;;;;;;;9.17;2.33;;;19.90;16.00;;;;;;5024716;28;20457;-72
2023/04/27 13:23:39;;;;;;;2.90;2.20;;;19.80;18.00;;;;;;5022677;28;20473;-73
2023/04/27 13:26:25;;;;;;;4.03;2.37;;;19.80;17.30;;;;;;5021855;28;20513;-74
2023/04/27 13:29:10;;;;;;;10.80;2.30;;;19.90;17.30;;;;;;5023192;28;20573;-73
2023/04/27 13:31:55;;;;;;;5.10;2.77;;;20.10;17.70;;;;;;5025055;28;20905;-74
2023/04/27 13:34:41;;;;;;;8.50;2.03;;;20.20;17.80;;;;;;5023086;28;20446;-73
2023/04/27 13:37:28;;;;;;;3.97;2.00;;;20.30;16.70;;;;;;5026852;28;20457;-72
2023/04/27 13:40:14;;;;;;;9.60;2.70;;;20.30;16.60;;;;;;5022127;28;20466;-73
2023/04/27 13:42:59;;;;;;;4.80;2.37;;;20.40;16.30;;;;;;5023498;28;20566;-72
2023/04/27 13:45:45;;;;;;;6.80;2.27;;;20.60;16.70;;;;;;5019516;28;21079;-73
2023/04/27 13:48:31;;;;;;;6.93;1.90;;;20.60;15.40;;;;;;5021931;28;21002;-74
2023/04/27 13:51:16;;;;;;;6.50;2.87;;;20.70;16.40;;;;;;5018754;28;20964;-72
2023/04/27 13:54:03;;;;;;;5.30;2.63;;;20.90;15.70;;;;;;5022108;28;20485;-72
2023/04/27 13:56:48;;;;;;;4.40;2.40;;;20.60;15.10;;;;;;5023686;28;20517;-72
2023/04/27 13:59:34;;;;;;;4.70;2.50;;;20.80;16.60;;;;;;5023332;28;20832;-72
2023/04/27 14:02:20;;;;;;;5.00;2.57;;;20.70;15.40;;;;;;5021519;28;20504;-72
2023/04/27 14:05:06;;;;;;;4.40;2.47;;;20.50;14.40;;;;;;5016684;28;20519;-72
2023/04/27 14:07:52;;;;;;;5.40;2.70;;;20.50;16.20;;;;;;5023280;28;20959;-71
2023/04/27 14:10:39;;;;;;;6.27;3.30;;;20.20;15.20;;;;;;5023183;28;20495;-72
2023/04/27 14:13:24;;;;;;;6.27;3.00;;;20.10;16.60;;;;;;5024077;28;20456;-71
2023/04/27 14:16:10;;;;;;;7.23;3.60;;;19.70;15.70;;;;;;5019637;28;20480;-72
2023/04/27 14:18:55;;;;;;;8.00;3.23;;;19.60;16.50;;;;;;5021291;28;20464;-72
2023/04/27 14:21:41;;;;;;;5.43;3.23;;;19.50;16.20;;;;;;5022653;28;20446;-71
2023/04/27 14:24:28;;;;;;;5.10;3.23;;;19.30;16.70;;;;;;5022208;28;20453;-72
2023/04/27 14:27:16;;;;;;;9.47;3.40;;;19.20;17.30;;;;;;5025318;28;20495;-72
2023/04/27 14:30:02;;;;;;;5.33;3.40;;;19.30;17.90;;;;;;5021277;28;20407;-72